Time,TemperatureF,DewpointF,PressureIn,WindDirection,WindDirectionDegrees,WindSpeedMPH,WindSpeedGustMPH,Humidity,HourlyPrecipIn,Conditions,Clouds,dailyrainin,SoftwareType,DateUTC
2013-08-09 00:01:00,53.0,52.0,30.00,WNW,287,1.0,5.0,95,0.00,,,0.02,,2013-08-09 07:01:00,
2013-08-09 00:12:00,53.0,52.0,30.00,WNW,298,3.0,9.0,95,0.00,,,0.02,,2013-08-09 07:12:00,
2013-08-09 00:21:00,53.0,52.0,30.00,North,0,0.0,0.0,95,0.00,,,0.02,,2013-08-09 07:21:00,
2013-08-09 00:33:00,53.0,52.0,30.00,North,0,0.0,6.0,95,0.00,,,0.01,,2013-08-09 07:33:00,
2013-08-09 00:43:00,54.0,53.0,30.00,North,0,0.0,0.0,96,0.00,,,0.01,,2013-08-09 07:43:00,
2013-08-09 00:52:00,53.0,52.0,30.00,North,0,0.0,0.0,96,0.00,,,0.01,,2013-08-09 07:52:00,
2013-08-09 01:02:00,53.0,52.0,30.00,North,0,0.0,0.0,96,0.00,,,0.01,,2013-08-09 08:02:00,
2013-08-09 01:11:00,53.0,52.0,30.00,ENE,77,0.0,3.0,96,0.00,,,0.01,,2013-08-09 08:11:00,
2013-08-09 01:43:00,53.0,52.0,30.00,North,0,0.0,0.0,96,0.00,,,0.01,,2013-08-09 08:43:00,
2013-08-09 01:53:00,53.0,52.0,30.00,North,0,0.0,0.0,96,0.00,,,0.01,,2013-08-09 08:53:00,
2013-08-09 02:01:00,53.0,52.0,30.00,North,0,0.0,0.0,96,0.00,,,0.01,,2013-08-09 09:01:00,
2013-08-09 02:12:00,53.0,52.0,30.00,North,0,0.0,0.0,96,0.00,,,0.01,,2013-08-09 09:12:00,
2013-08-09 02:22:00,54.0,53.0,30.00,North,0,0.0,0.0,96,0.00,,,0.01,,2013-08-09 09:22:00,
2013-08-09 02:32:00,53.0,52.0,30.00,North,0,0.0,0.0,96,0.00,,,0.01,,2013-08-09 09:32:00,
2013-08-09 02:43:00,53.0,52.0,29.99,NNW,329,6.0,8.0,96,0.00,,,0.01,,2013-08-09 09:43:00,
2013-08-09 02:52:00,53.0,52.0,29.99,NNW,329,6.0,8.0,96,0.00,,,0.01,,2013-08-09 09:52:00,
2013-08-09 03:11:00,53.0,52.0,29.99,North,0,0.0,4.0,96,0.00,,,0.01,,2013-08-09 10:11:00,
2013-08-09 03:21:00,52.0,51.0,29.99,NNW,341,0.0,5.0,96,0.00,,,0.01,,2013-08-09 10:21:00,
2013-08-09 03:32:00,53.0,52.0,29.98,West,273,3.0,7.0,96,0.00,,,0.01,,2013-08-09 10:32:00,
2013-08-09 03:43:00,53.0,52.0,29.98,NNW,333,3.0,8.0,96,0.00,,,0.01,,2013-08-09 10:43:00,
2013-08-09 03:53:00,53.0,52.0,29.98,North,0,0.0,0.0,96,0.00,,,0.01,,2013-08-09 10:53:00,
2013-08-09 04:01:00,53.0,52.0,29.98,NW,323,0.0,2.0,96,0.00,,,0.01,,2013-08-09 11:01:00,
2013-08-09 04:42:00,52.0,51.0,29.98,North,0,0.0,0.0,96,0.00,,,0.01,,2013-08-09 11:42:00,
2013-08-09 04:53:00,53.0,52.0,29.98,North,0,0.0,0.0,96,0.00,,,0.01,,2013-08-09 11:53:00,
2013-08-09 05:11:00,52.0,51.0,29.98,North,0,0.0,0.0,96,0.00,,,0.01,,2013-08-09 12:11:00,
2013-08-09 05:43:00,53.0,52.0,29.96,NW,326,6.0,13.0,97,0.00,,,0.00,,2013-08-09 12:43:00,
2013-08-09 05:52:00,53.0,52.0,29.96,West,277,5.0,8.0,97,0.00,,,0.00,,2013-08-09 12:52:00,
2013-08-09 06:01:00,53.0,52.0,29.96,NNW,333,7.0,11.0,97,0.00,,,0.00,,2013-08-09 13:01:00,
2013-08-09 06:11:00,52.0,51.0,29.96,NW,324,0.0,11.0,96,0.00,,,0.00,,2013-08-09 13:11:00,
2013-08-09 06:23:00,52.0,51.0,29.97,North,0,0.0,0.0,96,0.00,,,0.00,,2013-08-09 13:23:00,
2013-08-09 06:32:00,52.0,51.0,29.97,West,263,0.0,5.0,97,0.00,,,0.00,,2013-08-09 13:32:00,
2013-08-09 06:43:00,52.0,51.0,29.98,ENE,67,1.0,6.0,96,0.00,,,0.00,,2013-08-09 13:43:00,
2013-08-09 06:52:00,52.0,51.0,29.98,North,0,0.0,6.0,96,0.00,,,0.00,,2013-08-09 13:52:00,
2013-08-09 07:02:00,52.0,51.0,29.98,North,0,0.0,0.0,96,0.00,,,0.00,,2013-08-09 14:02:00,
2013-08-09 07:43:00,53.0,52.0,29.98,North,0,0.0,0.0,97,0.00,,,0.00,,2013-08-09 14:43:00,
2013-08-09 07:53:00,52.0,51.0,29.98,North,0,0.0,0.0,97,0.00,,,0.00,,2013-08-09 14:53:00,
2013-08-09 08:01:00,53.0,52.0,29.98,North,0,0.0,0.0,97,0.00,,,0.00,,2013-08-09 15:01:00,
2013-08-09 08:11:00,53.0,52.0,29.98,North,0,0.0,0.0,97,0.00,,,0.00,,2013-08-09 15:11:00,
2013-08-09 08:43:00,55.0,54.0,29.99,North,0,0.0,0.0,97,0.00,,,0.00,,2013-08-09 15:43:00,
2013-08-09 08:53:00,54.0,53.0,29.99,North,0,0.0,0.0,97,0.00,,,0.00,,2013-08-09 15:53:00,
2013-08-09 09:01:00,54.0,53.0,29.99,North,0,0.0,0.0,96,0.00,,,0.00,,2013-08-09 16:01:00,
2013-08-09 09:43:00,55.0,54.0,29.99,North,0,0.0,4.0,96,0.00,,,0.00,,2013-08-09 16:43:00,
2013-08-09 09:53:00,55.0,54.0,29.98,NW,308,4.0,6.0,96,0.00,,,0.00,,2013-08-09 16:53:00,
2013-08-09 10:02:00,55.0,54.0,29.98,WNW,287,1.0,6.0,96,0.00,,,0.00,,2013-08-09 17:02:00,
2013-08-09 10:11:00,57.0,56.0,29.97,NW,316,5.0,9.0,95,0.00,,,0.00,,2013-08-09 17:11:00,
2013-08-09 10:22:00,57.0,55.0,29.97,NW,309,7.0,12.0,94,0.00,,,0.00,,2013-08-09 17:22:00,
2013-08-09 10:32:00,58.0,55.0,29.96,NW,310,11.0,16.0,91,0.00,,,0.00,,2013-08-09 17:32:00,
2013-08-09 10:43:00,58.0,56.0,29.96,NW,316,10.0,16.0,92,0.00,,,0.00,,2013-08-09 17:43:00,
2013-08-09 10:52:00,58.0,55.0,29.97,NW,323,10.0,14.0,91,0.00,,,0.00,,2013-08-09 17:52:00,
2013-08-09 11:01:00,59.0,57.0,29.97,NW,320,3.0,14.0,92,0.00,,,0.00,,2013-08-09 18:01:00,
2013-08-09 11:11:00,59.0,56.0,29.97,NNW,329,7.0,11.0,90,0.00,,,0.00,,2013-08-09 18:11:00,
2013-08-09 11:22:00,60.0,56.0,29.96,NW,317,10.0,17.0,88,0.00,,,0.00,,2013-08-09 18:22:00,
2013-08-09 11:32:00,59.0,55.0,29.96,WNW,303,11.0,19.0,88,0.00,,,0.00,,2013-08-09 18:32:00,
2013-08-09 11:43:00,58.0,55.0,29.97,WNW,289,10.0,16.0,90,0.00,,,0.00,,2013-08-09 18:43:00,
2013-08-09 11:52:00,58.0,55.0,29.97,NW,316,7.0,16.0,90,0.00,,,0.00,,2013-08-09 18:52:00,
2013-08-09 12:11:00,59.0,56.0,29.97,NW,306,12.0,19.0,90,0.00,,,0.00,,2013-08-09 19:11:00,
2013-08-09 12:22:00,58.0,55.0,29.97,NW,317,15.0,19.0,90,0.00,,,0.00,,2013-08-09 19:22:00,
2013-08-09 12:32:00,59.0,56.0,29.96,NW,312,10.0,17.0,91,0.00,,,0.00,,2013-08-09 19:32:00,
2013-08-09 12:43:00,58.0,55.0,29.97,NW,310,11.0,18.0,90,0.00,,,0.00,,2013-08-09 19:43:00,
2013-08-09 12:52:00,59.0,56.0,29.97,NW,322,7.0,18.0,90,0.00,,,0.00,,2013-08-09 19:52:00,
2013-08-09 13:11:00,59.0,56.0,29.97,NW,317,8.0,14.0,89,0.00,,,0.00,,2013-08-09 20:11:00,
2013-08-09 13:22:00,60.0,57.0,29.97,WNW,299,5.0,12.0,89,0.00,,,0.00,,2013-08-09 20:22:00,
2013-08-09 13:32:00,60.0,57.0,29.96,NW,306,7.0,12.0,89,0.00,,,0.00,,2013-08-09 20:32:00,
2013-08-09 13:43:00,60.0,56.0,29.97,NW,319,10.0,15.0,88,0.00,,,0.00,,2013-08-09 20:43:00,
2013-08-09 13:52:00,61.0,57.0,29.97,WNW,301,8.0,15.0,87,0.00,,,0.00,,2013-08-09 20:52:00,
2013-08-09 14:12:00,63.0,58.0,29.96,NW,322,10.0,16.0,84,0.00,,,0.00,,2013-08-09 21:12:00,
2013-08-09 14:22:00,63.0,57.0,29.96,West,266,9.0,15.0,82,0.00,,,0.00,,2013-08-09 21:22:00,
2013-08-09 14:32:00,64.0,58.0,29.96,NW,312,10.0,17.0,80,0.00,,,0.00,,2013-08-09 21:32:00,
2013-08-09 14:43:00,64.0,58.0,29.95,NW,315,10.0,17.0,80,0.00,,,0.00,,2013-08-09 21:43:00,
2013-08-09 14:52:00,64.0,57.0,29.95,NW,308,10.0,16.0,79,0.00,,,0.00,,2013-08-09 21:52:00,
2013-08-09 15:11:00,63.0,55.0,29.94,WNW,298,13.0,20.0,76,0.00,,,0.00,,2013-08-09 22:11:00,
2013-08-09 15:22:00,63.0,56.0,29.94,NNW,337,11.0,20.0,78,0.00,,,0.00,,2013-08-09 22:22:00,
2013-08-09 15:32:00,63.0,56.0,29.94,NNW,337,13.0,22.0,78,0.00,,,0.00,,2013-08-09 22:32:00,
2013-08-09 15:42:00,63.0,57.0,29.95,NW,326,14.0,22.0,81,0.00,,,0.00,,2013-08-09 22:42:00,
2013-08-09 15:52:00,62.0,55.0,29.94,WNW,295,14.0,20.0,79,0.00,,,0.00,,2013-08-09 22:52:00,
2013-08-09 16:01:00,62.0,56.0,29.94,NW,310,11.0,21.0,81,0.00,,,0.00,,2013-08-09 23:01:00,
2013-08-09 16:11:00,61.0,55.0,29.94,NW,308,11.0,24.0,82,0.00,,,0.00,,2013-08-09 23:11:00,
2013-08-09 16:42:00,62.0,56.0,29.95,NW,326,12.0,23.0,81,0.00,,,0.00,,2013-08-09 23:42:00,
2013-08-09 16:52:00,61.0,55.0,29.95,NW,315,11.0,20.0,82,0.00,,,0.00,,2013-08-09 23:52:00,
2013-08-09 17:01:00,61.0,55.0,29.95,WNW,303,14.0,20.0,82,0.00,,,0.00,,2013-08-10 00:01:00,
2013-08-09 17:21:00,59.0,54.0,29.94,NW,309,14.0,20.0,83,0.00,,,0.00,,2013-08-10 00:21:00,
2013-08-09 17:32:00,59.0,54.0,29.94,NW,320,15.0,24.0,85,0.00,,,0.00,,2013-08-10 00:32:00,
2013-08-09 17:42:00,59.0,54.0,29.95,WNW,292,12.0,24.0,85,0.00,,,0.00,,2013-08-10 00:42:00,
2013-08-09 17:52:00,59.0,54.0,29.95,WNW,292,12.0,24.0,85,0.00,,,0.00,,2013-08-10 00:52:00,
2013-08-09 18:01:00,59.0,55.0,29.95,WNW,299,11.0,20.0,86,0.00,,,0.00,,2013-08-10 01:01:00,
2013-08-09 18:21:00,60.0,55.0,29.94,NW,313,10.0,20.0,85,0.00,,,0.00,,2013-08-10 01:21:00,
2013-08-09 18:32:00,60.0,55.0,29.94,NW,313,10.0,20.0,85,0.00,,,0.00,,2013-08-10 01:32:00,
2013-08-09 18:42:00,60.0,55.0,29.94,NW,313,10.0,20.0,85,0.00,,,0.00,,2013-08-10 01:42:00,
2013-08-09 18:52:00,60.0,55.0,29.94,NW,313,10.0,20.0,85,0.00,,,0.00,,2013-08-10 01:52:00,
2013-08-09 19:11:00,60.0,56.0,29.93,NW,308,12.0,17.0,86,0.00,,,0.00,,2013-08-10 02:11:00,
2013-08-09 19:21:00,60.0,56.0,29.93,NW,308,12.0,17.0,86,0.00,,,0.00,,2013-08-10 02:21:00,
2013-08-09 19:32:00,60.0,56.0,29.93,NW,308,12.0,17.0,86,0.00,,,0.00,,2013-08-10 02:32:00,
2013-08-09 19:42:00,60.0,56.0,29.93,NW,308,12.0,17.0,86,0.00,,,0.00,,2013-08-10 02:42:00,
2013-08-09 19:52:00,60.0,56.0,29.93,WNW,302,8.0,16.0,86,0.00,,,0.00,,2013-08-10 02:52:00,
2013-08-09 20:01:00,59.0,55.0,29.92,NNW,329,8.0,20.0,88,0.00,,,0.00,,2013-08-10 03:01:00,
2013-08-09 20:11:00,59.0,55.0,29.92,NNW,329,8.0,20.0,88,0.00,,,0.00,,2013-08-10 03:11:00,
2013-08-09 20:21:00,59.0,56.0,29.92,NW,317,9.0,17.0,89,0.00,,,0.00,,2013-08-10 03:21:00,
2013-08-09 20:32:00,59.0,56.0,29.92,NW,317,9.0,17.0,89,0.00,,,0.00,,2013-08-10 03:32:00,
2013-08-09 20:42:00,59.0,56.0,29.94,NW,315,5.0,17.0,89,0.00,,,0.00,,2013-08-10 03:42:00,
2013-08-09 20:52:00,59.0,56.0,29.94,NW,315,5.0,17.0,89,0.00,,,0.00,,2013-08-10 03:52:00,
2013-08-09 21:01:00,58.0,55.0,29.97,WNW,303,8.0,12.0,90,0.00,,,0.00,,2013-08-10 04:01:00,
2013-08-09 21:12:00,58.0,55.0,29.97,WNW,303,8.0,12.0,90,0.00,,,0.00,,2013-08-10 04:12:00,
2013-08-09 21:22:00,57.0,54.0,29.97,NW,319,7.0,12.0,90,0.00,,,0.00,,2013-08-10 04:22:00,
2013-08-09 21:32:00,56.0,54.0,29.96,NW,324,9.0,13.0,92,0.00,,,0.00,,2013-08-10 04:32:00,
2013-08-09 21:42:00,56.0,54.0,29.97,NW,315,8.0,14.0,93,0.00,,,0.00,,2013-08-10 04:42:00,
2013-08-09 21:53:00,55.0,53.0,29.96,NNW,330,7.0,14.0,93,0.00,,,0.00,,2013-08-10 04:53:00,
2013-08-09 22:02:00,55.0,53.0,29.96,NW,319,8.0,13.0,94,0.00,,,0.00,,2013-08-10 05:02:00,
2013-08-09 22:11:00,56.0,55.0,29.97,NW,326,9.0,14.0,95,0.00,,,0.00,,2013-08-10 05:11:00,
2013-08-09 22:42:00,56.0,55.0,29.97,NW,323,9.0,12.0,95,0.00,,,0.00,,2013-08-10 05:42:00,
2013-08-09 22:52:00,56.0,55.0,29.98,NW,313,6.0,14.0,95,0.00,,,0.00,,2013-08-10 05:52:00,
2013-08-09 23:01:00,56.0,55.0,29.98,NNW,327,6.0,11.0,95,0.00,,,0.00,,2013-08-10 06:01:00,
2013-08-09 23:43:00,56.0,55.0,29.98,NNW,333,8.0,13.0,95,0.00,,,0.00,,2013-08-10 06:43:00,
2013-08-09 23:52:00,56.0,55.0,29.98,NW,320,6.0,11.0,96,0.00,,,0.00,,2013-08-10 06:52:00,